Pagina principale
METAR-TAF:

METAR-TAF

Aeroporti :

Aeroporto di Treviso-Sant'Angelo

Treviso, Italia

latitudine: 45-39N, longitudine: 012-11E, altezza: 18 m

Osservazione

Il bollettino è stato emesso 42 minuti fa, alle 13:20 UTC
Vento 6 kt da ovest/sud-ovest, variando fra sud/sud-ovest e ovest
Temperature 23°C
Umidità 73%
Pressione 1017 hPa
Visibilità 10 km o più
Poco nuvoloso ad un'altezza di 2000 ft

METAR: LIPH 271320Z 24006KT 210V280 9999 FEW020 23/18 Q1017

Ora: 16:02 (14:02 UTC)

Previsione

Il bollettino è stato emesso 3 ore e 2 minuti fa, alle 11:00 UTC
Previsione valida dal 27 alle 12 UTC al 28 alle 12 UTC
Vento 5 kt da direzioni variabili
Visibilità 10 km o più
Nubi sparse ad un'altezza di 2000 ft
Temporaneamente
dal 28 alle 00 UTC al 28 alle 07 UTC
Visibilità: 2000 m
Nuvoloso ad un'altezza di 1000 ft
foschia

TAF: LIPH 271100Z 2712/2812 VRB05KT 9999 SCT020 TEMPO 2800/2807 2000 BR BKN010

Osservazioni e previsioni meteorologiche di più di 4000 aeroporti (messaggi METAR e TAF).

Le stazioni disponibili sono rappresentate dai dischi gialli e rossi sulla carta.

Puntare il mouse per vedere il nome della stazione.

Clicca sopra per visualizzare le osservazioni e previsioni meteorologiche.

Per cambiare la mappa : fare clic sui pulsanti verdi con una croce nera per ingrandire, il pulsante verde con un trattino per diminuire, o sulla freccia verde per le mappe adiacenti.


METAR-TAF: